createdAt,value
2022-09-11T00:01:40.682Z,3.90
2022-09-11T00:04:08.448Z,3.50
2022-09-11T00:06:35.995Z,3.38
2022-09-11T00:09:06.314Z,3.53
2022-09-11T00:11:42.317Z,3.65
2022-09-11T00:14:17.155Z,2.92
2022-09-11T00:16:48.123Z,3.08
2022-09-11T00:19:23.497Z,3.25
2022-09-11T00:21:57.518Z,3.50
2022-09-11T00:24:27.767Z,2.90
2022-09-11T00:26:55.168Z,2.88
2022-09-11T00:29:24.124Z,2.85
2022-09-11T00:31:51.512Z,2.65
2022-09-11T00:34:24.355Z,2.97
2022-09-11T00:36:54.847Z,2.47
2022-09-11T00:39:22.313Z,2.45
2022-09-11T00:41:49.834Z,2.42
2022-09-11T00:44:18.073Z,2.13
2022-09-11T00:46:53.506Z,2.08
2022-09-11T00:49:37.504Z,2.30
2022-09-11T00:52:33.463Z,1.90
2022-09-11T00:55:16.866Z,1.75
2022-09-11T00:58:06.308Z,2.45
2022-09-11T01:00:34.206Z,2.60
2022-09-11T01:03:01.989Z,2.03
2022-09-11T01:05:35.064Z,2.80
2022-09-11T01:08:04.085Z,1.95
2022-09-11T01:10:45.679Z,2.00
2022-09-11T01:13:35.936Z,2.47
2022-09-11T01:16:22.435Z,2.08
2022-09-11T01:19:25.558Z,1.80
2022-09-11T01:22:33.741Z,1.98
2022-09-11T01:25:19.689Z,1.85
2022-09-11T01:27:56.131Z,2.00
2022-09-11T01:30:30.484Z,2.47
2022-09-11T01:33:19.503Z,2.13
2022-09-11T01:35:47.206Z,2.13
2022-09-11T01:38:20.372Z,2.20
2022-09-11T01:41:08.092Z,1.90
2022-09-11T01:43:43.828Z,2.30
2022-09-11T01:46:13.689Z,1.92
2022-09-11T01:48:47.686Z,1.92
2022-09-11T01:53:50.599Z,2.17
2022-09-11T01:56:29.476Z,1.85
2022-09-11T01:59:03.831Z,1.60
2022-09-11T02:01:39.179Z,2.00
2022-09-11T02:04:12.785Z,2.00
2022-09-11T02:06:53.821Z,1.90
2022-09-11T02:09:31.484Z,1.80
2022-09-11T02:12:03.719Z,2.00
2022-09-11T02:14:39.051Z,2.17
2022-09-11T02:19:57.351Z,1.48
2022-09-11T02:22:25.420Z,1.92
2022-09-11T02:24:53.854Z,1.80
2022-09-11T02:27:25.043Z,1.75
2022-09-11T02:29:54.191Z,2.10
2022-09-11T02:32:23.120Z,1.73
2022-09-11T02:34:51.616Z,1.63
2022-09-11T02:37:51.743Z,1.73
2022-09-11T02:40:45.094Z,1.70
2022-09-11T02:43:21.160Z,1.45
2022-09-11T02:46:09.930Z,1.70
2022-09-11T02:48:55.552Z,1.33
2022-09-11T02:51:38.559Z,1.40
2022-09-11T02:54:15.081Z,1.58
2022-09-11T02:56:48.532Z,1.30
2022-09-11T02:59:38.871Z,1.75
2022-09-11T03:02:17.525Z,1.55
2022-09-11T03:04:48.757Z,1.33
2022-09-11T03:07:17.017Z,1.10
2022-09-11T03:09:44.656Z,1.77
2022-09-11T03:12:18.661Z,1.40
2022-09-11T03:14:49.807Z,1.20
2022-09-11T03:17:17.477Z,1.52
2022-09-11T03:19:44.922Z,1.20
2022-09-11T03:22:12.621Z,1.33
2022-09-11T03:24:39.971Z,1.30
2022-09-11T03:27:08.565Z,1.20
2022-09-11T03:29:35.991Z,1.00
2022-09-11T03:32:03.427Z,1.23
2022-09-11T03:34:31.973Z,1.20
2022-09-11T03:37:00.428Z,1.30
2022-09-11T03:39:29.171Z,1.20
2022-09-11T03:41:59.627Z,1.35
2022-09-11T03:44:27.538Z,1.15
2022-09-11T03:46:54.866Z,1.10
2022-09-11T03:49:22.241Z,1.40
2022-09-11T03:51:49.963Z,1.23
2022-09-11T03:54:19.122Z,1.30
2022-09-11T03:56:47.315Z,1.27
2022-09-11T03:59:16.154Z,1.30
2022-09-11T04:01:44.761Z,1.40
2022-09-11T04:04:13.439Z,1.15
2022-09-11T04:06:44.505Z,1.10
2022-09-11T04:09:12.196Z,1.30
2022-09-11T04:11:40.330Z,1.13
2022-09-11T04:14:22.728Z,1.27
2022-09-11T04:16:52.346Z,1.55
2022-09-11T04:19:21.592Z,1.60
2022-09-11T04:21:50.031Z,1.40
2022-09-11T04:24:17.575Z,1.00
2022-09-11T04:26:46.992Z,1.38
2022-09-11T04:29:28.197Z,1.10
2022-09-11T04:31:57.311Z,1.13
2022-09-11T04:34:28.242Z,1.10
2022-09-11T04:36:56.772Z,1.30
2022-09-11T04:39:24.732Z,1.50
2022-09-11T04:41:51.937Z,1.42
2022-09-11T04:44:23.011Z,1.40
2022-09-11T04:46:51.494Z,1.55
2022-09-11T04:49:20.197Z,1.50
2022-09-11T04:51:47.937Z,1.25
2022-09-11T04:54:21.612Z,1.05
2022-09-11T04:56:53.073Z,1.35
2022-09-11T04:59:23.656Z,1.35
2022-09-11T05:01:56.611Z,1.50
2022-09-11T05:04:26.366Z,1.73
2022-09-11T05:06:55.544Z,1.40
2022-09-11T05:09:24.412Z,1.60
2022-09-11T05:11:52.044Z,1.40
2022-09-11T05:14:21.738Z,1.40
2022-09-11T05:16:53.049Z,1.10
2022-09-11T05:19:24.009Z,1.50
2022-09-11T05:21:53.502Z,1.55
2022-09-11T05:24:20.869Z,1.48
2022-09-11T05:26:49.218Z,1.75
2022-09-11T05:29:17.498Z,1.10
2022-09-11T05:32:07.225Z,1.48
2022-09-11T05:34:34.668Z,1.30
2022-09-11T05:37:03.489Z,1.73
2022-09-11T05:39:36.287Z,1.55
2022-09-11T05:42:04.786Z,1.15
2022-09-11T05:44:38.269Z,1.48
2022-09-11T05:47:06.873Z,1.30
2022-09-11T05:49:34.262Z,1.40
2022-09-11T05:52:02.778Z,1.20
2022-09-11T05:54:32.359Z,1.15
2022-09-11T05:57:07.015Z,1.30
2022-09-11T05:59:36.860Z,1.52
2022-09-11T06:02:04.314Z,1.13
2022-09-11T06:04:39.925Z,1.83
2022-09-11T06:07:08.454Z,1.20
2022-09-11T06:09:36.877Z,1.48
2022-09-11T06:12:04.708Z,1.10
2022-09-11T06:14:32.473Z,2.13
2022-09-11T06:17:00.767Z,2.25
2022-09-11T06:19:31.365Z,2.00
2022-09-11T06:21:59.224Z,2.08
2022-09-11T06:24:33.864Z,2.08
2022-09-11T06:27:02.499Z,2.22
2022-09-11T06:29:34.710Z,2.30
2022-09-11T06:32:04.094Z,1.95
2022-09-11T06:34:34.180Z,2.25
2022-09-11T06:37:05.618Z,2.00
2022-09-11T06:39:34.432Z,2.00
2022-09-11T06:42:03.041Z,2.20
2022-09-11T06:44:35.829Z,2.40
2022-09-11T06:47:04.295Z,1.95
2022-09-11T06:49:33.265Z,1.80
2022-09-11T06:52:20.107Z,2.30
2022-09-11T06:55:00.430Z,2.38
2022-09-11T06:57:28.888Z,2.60
2022-09-11T06:59:58.921Z,2.28
2022-09-11T07:02:27.284Z,2.65
2022-09-11T07:04:55.225Z,2.10
2022-09-11T07:07:25.629Z,2.50
2022-09-11T07:09:52.980Z,2.80
2022-09-11T07:12:24.279Z,2.63
2022-09-11T07:14:52.265Z,2.22
2022-09-11T07:17:19.680Z,1.73
2022-09-11T07:19:50.534Z,1.58
2022-09-11T07:22:19.935Z,1.60
2022-09-11T07:24:48.945Z,1.40
2022-09-11T07:27:16.163Z,1.10
2022-09-11T07:29:44.620Z,1.63
2022-09-11T07:32:12.015Z,1.23
2022-09-11T07:34:42.632Z,1.50
2022-09-11T07:37:11.126Z,1.42
2022-09-11T07:39:40.186Z,1.38
2022-09-11T07:42:13.328Z,1.30
2022-09-11T07:44:42.183Z,1.15
2022-09-11T07:47:10.226Z,1.60
2022-09-11T07:49:42.751Z,1.50
2022-09-11T07:52:12.607Z,2.17
2022-09-11T07:54:48.629Z,1.63
2022-09-11T07:57:16.680Z,1.33
2022-09-11T07:59:45.023Z,1.30
2022-09-11T08:02:13.489Z,1.30
2022-09-11T08:04:42.549Z,1.38
2022-09-11T08:07:11.150Z,1.60
2022-09-11T08:09:39.394Z,2.00
2022-09-11T08:12:07.961Z,1.80
2022-09-11T08:14:37.231Z,1.60
2022-09-11T08:17:16.621Z,1.90
2022-09-11T08:19:44.049Z,1.88
2022-09-11T08:22:13.213Z,2.40
2022-09-11T08:24:44.742Z,1.67
2022-09-11T08:27:15.200Z,1.75
2022-09-11T08:29:43.307Z,1.77
2022-09-11T08:32:11.145Z,1.70
2022-09-11T08:34:39.600Z,2.03
2022-09-11T08:37:06.999Z,2.10
2022-09-11T08:39:36.066Z,1.70
2022-09-11T08:42:13.400Z,1.88
2022-09-11T08:44:53.856Z,1.67
2022-09-11T08:47:37.446Z,2.10
2022-09-11T08:50:20.586Z,2.40
2022-09-11T08:52:49.043Z,1.73
2022-09-11T08:55:30.338Z,2.00
2022-09-11T08:58:19.406Z,2.08
2022-09-11T09:01:02.265Z,2.00
2022-09-11T09:03:35.759Z,2.17
2022-09-11T09:06:17.313Z,2.05
2022-09-11T09:09:00.915Z,2.15
2022-09-11T09:11:53.548Z,2.55
2022-09-11T09:14:36.949Z,2.50
2022-09-11T09:17:20.341Z,2.05
2022-09-11T09:20:00.766Z,2.53
2022-09-11T09:22:36.852Z,2.53
2022-09-11T09:25:13.737Z,2.10
2022-09-11T09:27:54.491Z,2.28
2022-09-11T09:30:24.861Z,2.50
2022-09-11T09:33:01.445Z,2.58
2022-09-11T09:35:41.950Z,2.60
2022-09-11T09:38:23.852Z,2.28
2022-09-11T09:41:26.216Z,2.05
2022-09-11T09:44:24.722Z,2.40
2022-09-11T09:46:56.372Z,3.15
2022-09-11T09:49:28.199Z,2.33
2022-09-11T09:52:03.603Z,2.30
2022-09-11T09:54:36.663Z,2.45
2022-09-11T09:57:10.687Z,2.92
2022-09-11T09:59:51.997Z,2.95
2022-09-11T10:02:54.971Z,3.00
2022-09-11T10:05:27.468Z,3.22
2022-09-11T10:07:58.657Z,2.92
2022-09-11T10:10:29.628Z,2.90
2022-09-11T10:13:18.028Z,2.42
2022-09-11T10:15:49.366Z,2.72
2022-09-11T10:18:32.522Z,2.63
2022-09-11T10:21:12.036Z,2.58
2022-09-11T10:24:24.023Z,2.80
2022-09-11T10:26:54.438Z,2.60
2022-09-11T10:29:30.283Z,2.88
2022-09-11T10:32:02.705Z,2.85
2022-09-11T10:34:48.925Z,3.15
2022-09-11T10:37:25.573Z,2.45
2022-09-11T10:39:54.304Z,3.13
2022-09-11T10:42:27.844Z,3.05
2022-09-11T10:45:02.287Z,2.58
2022-09-11T10:47:33.093Z,2.58
2022-09-11T10:50:18.976Z,2.70
2022-09-11T10:52:58.653Z,3.05
2022-09-11T10:55:55.972Z,3.38
2022-09-11T10:58:31.357Z,2.65
2022-09-11T11:00:58.823Z,3.20
2022-09-11T11:03:28.559Z,2.85
2022-09-11T11:06:36.095Z,3.65
2022-09-11T11:09:43.703Z,3.78
2022-09-11T11:12:50.153Z,4.03
2022-09-11T11:15:30.505Z,4.60
2022-09-11T11:18:16.308Z,4.07
2022-09-11T11:20:48.877Z,4.30
2022-09-11T11:23:30.115Z,4.00
2022-09-11T11:26:13.424Z,4.72
2022-09-11T11:28:58.868Z,3.40
2022-09-11T11:32:01.273Z,3.83
2022-09-11T11:35:04.245Z,3.60
2022-09-11T11:37:40.221Z,3.03
2022-09-11T11:40:29.343Z,2.90
2022-09-11T11:43:03.712Z,2.67
2022-09-11T11:45:56.021Z,3.00
2022-09-11T11:48:31.681Z,3.00
2022-09-11T11:51:15.621Z,2.80
2022-09-11T11:54:03.555Z,2.80
2022-09-11T11:57:02.504Z,2.97
2022-09-11T11:59:42.365Z,2.72
2022-09-11T12:02:09.647Z,2.20
2022-09-11T12:05:00.315Z,2.45
2022-09-11T12:07:33.418Z,2.03
2022-09-11T12:10:03.849Z,3.00
2022-09-11T12:12:47.990Z,2.60
2022-09-11T12:15:24.543Z,2.58
2022-09-11T12:18:07.255Z,2.78
2022-09-11T12:20:39.414Z,3.08
2022-09-11T12:23:28.169Z,2.70
2022-09-11T12:26:25.152Z,2.40
2022-09-11T12:29:25.253Z,2.63
2022-09-11T12:31:52.583Z,2.70
2022-09-11T12:34:27.665Z,2.45
2022-09-11T12:37:00.906Z,2.78
2022-09-11T12:39:35.867Z,3.35
2022-09-11T12:42:24.699Z,2.70
2022-09-11T12:44:51.882Z,2.40
2022-09-11T12:47:27.644Z,2.67
2022-09-11T12:50:06.157Z,2.63
2022-09-11T12:52:45.382Z,2.92
2022-09-11T12:55:43.565Z,2.67
2022-09-11T12:58:25.636Z,3.50
2022-09-11T13:01:23.509Z,2.70
2022-09-11T13:04:21.846Z,3.30
2022-09-11T13:06:55.086Z,3.28
2022-09-11T13:09:26.070Z,2.40
2022-09-11T13:11:55.380Z,2.72
2022-09-11T13:14:33.555Z,2.70
2022-09-11T13:17:03.038Z,2.95
2022-09-11T13:19:37.814Z,3.28
2022-09-11T13:22:31.332Z,2.55
2022-09-11T13:25:22.876Z,2.28
2022-09-11T13:28:06.361Z,2.22
2022-09-11T13:30:34.381Z,2.60
2022-09-11T13:33:20.625Z,2.30
2022-09-11T13:35:50.495Z,2.80
2022-09-11T13:38:32.657Z,2.67
2022-09-11T13:41:06.516Z,2.80
2022-09-11T13:43:59.356Z,3.20
2022-09-11T13:46:26.832Z,2.78
2022-09-11T14:01:53.602Z,2.80
2022-09-11T14:04:22.051Z,3.10
2022-09-11T14:06:49.530Z,3.08
2022-09-11T14:09:20.421Z,2.45
2022-09-11T14:11:48.561Z,2.33
2022-09-11T14:14:26.183Z,2.88
2022-09-11T14:16:59.359Z,2.88
2022-09-11T14:19:30.965Z,2.63
2022-09-11T14:21:59.221Z,2.58
2022-09-11T14:24:35.241Z,2.70
2022-09-11T14:27:04.937Z,2.80
2022-09-11T14:29:36.453Z,2.40
2022-09-11T14:32:23.538Z,1.95
2022-09-11T14:34:50.936Z,2.00
2022-09-11T14:37:18.311Z,2.50
2022-09-11T14:39:50.501Z,2.38
2022-09-11T14:42:23.676Z,2.00
2022-09-11T14:44:51.675Z,1.98
2022-09-11T14:47:23.021Z,2.08
2022-09-11T14:49:55.497Z,2.40
2022-09-11T14:52:25.829Z,2.70
2022-09-11T14:54:54.404Z,2.17
2022-09-11T14:57:25.257Z,2.03
2022-09-11T14:59:53.256Z,1.80
2022-09-11T15:02:25.857Z,2.00
2022-09-11T15:04:55.421Z,2.00
2022-09-11T15:07:24.316Z,2.22
2022-09-11T15:09:53.983Z,2.30
2022-09-11T15:12:22.711Z,2.20
2022-09-11T15:14:59.114Z,2.00
2022-09-11T15:17:31.914Z,1.60
2022-09-11T15:20:00.867Z,2.00
2022-09-11T15:22:29.135Z,1.85
2022-09-11T15:24:58.377Z,2.10
2022-09-11T15:27:25.863Z,1.65
2022-09-11T15:29:54.066Z,1.90
2022-09-11T15:32:21.571Z,1.70
2022-09-11T15:34:49.348Z,1.95
2022-09-11T15:37:17.260Z,1.92
2022-09-11T15:39:44.940Z,2.25
2022-09-11T15:42:13.723Z,2.13
2022-09-11T15:44:41.226Z,1.70
2022-09-11T15:47:09.212Z,1.88
2022-09-11T15:49:44.844Z,2.10
2022-09-11T15:52:12.796Z,2.13
2022-09-11T15:54:40.360Z,2.25
2022-09-11T15:57:08.416Z,2.67
2022-09-11T15:59:35.792Z,2.80
2022-09-11T16:02:03.200Z,2.65
2022-09-11T16:04:32.432Z,2.95
2022-09-11T16:07:00.241Z,2.35
2022-09-11T16:09:33.412Z,2.17
2022-09-11T16:12:02.130Z,2.67
2022-09-11T16:14:35.248Z,2.45
2022-09-11T16:17:03.798Z,2.60
2022-09-11T16:19:31.978Z,2.35
2022-09-11T16:22:01.766Z,2.42
2022-09-11T16:24:31.028Z,2.80
2022-09-11T16:27:01.001Z,2.42
2022-09-11T16:29:51.160Z,3.10
2022-09-11T16:32:28.844Z,2.20
2022-09-11T16:34:57.923Z,3.00
2022-09-11T16:37:26.249Z,2.85
2022-09-11T16:39:55.054Z,3.08
2022-09-11T16:42:22.904Z,3.17
2022-09-11T16:44:55.207Z,3.42
2022-09-11T16:47:23.202Z,2.90
2022-09-11T16:50:06.433Z,2.97
2022-09-11T16:52:34.941Z,2.90
2022-09-11T16:55:02.676Z,2.92
2022-09-11T16:57:31.232Z,3.30
2022-09-11T16:59:59.083Z,3.50
2022-09-11T17:02:27.207Z,3.55
2022-09-11T17:04:54.541Z,3.00
2022-09-11T17:07:21.849Z,3.38
2022-09-11T17:09:49.221Z,3.30
2022-09-11T17:12:18.178Z,3.45
2022-09-11T17:14:45.504Z,3.25
2022-09-11T17:17:14.014Z,2.88
2022-09-11T17:19:42.024Z,4.00
2022-09-11T17:22:10.609Z,3.05
2022-09-11T17:24:39.105Z,3.10
2022-09-11T17:27:07.644Z,2.75
2022-09-11T17:29:35.477Z,3.40
2022-09-11T17:32:26.214Z,2.58
2022-09-11T17:34:51.682Z,2.85
2022-09-11T17:37:19.000Z,2.95
2022-09-11T17:39:47.082Z,2.75
2022-09-11T17:42:14.409Z,3.00
2022-09-11T17:44:43.110Z,3.45
2022-09-11T17:47:10.456Z,3.42
2022-09-11T17:49:38.644Z,3.67
2022-09-11T17:52:06.189Z,4.07
2022-09-11T17:54:33.708Z,5.53
2022-09-11T17:57:01.309Z,5.68
2022-09-11T17:59:28.613Z,6.07
2022-09-11T18:01:56.014Z,6.57
2022-09-11T18:04:23.375Z,7.05
2022-09-11T18:06:51.429Z,6.90
2022-09-11T18:09:20.195Z,7.20
2022-09-11T18:11:50.626Z,7.43
2022-09-11T18:14:19.093Z,7.70
2022-09-11T18:16:50.619Z,7.10
2022-09-11T18:19:20.790Z,7.45
2022-09-11T18:21:50.594Z,7.45
2022-09-11T18:24:20.860Z,7.85
2022-09-11T18:26:57.241Z,7.82
2022-09-11T18:29:24.807Z,7.70
2022-09-11T18:31:56.299Z,8.23
2022-09-11T18:34:27.847Z,6.60
2022-09-11T18:36:55.411Z,6.32
2022-09-11T18:39:22.898Z,6.68
2022-09-11T18:41:53.075Z,6.55
2022-09-11T18:44:22.526Z,6.55
2022-09-11T18:46:53.596Z,5.88
2022-09-11T18:49:21.770Z,6.57
2022-09-11T18:51:49.190Z,7.78
2022-09-11T18:54:20.491Z,6.95
2022-09-11T18:56:49.430Z,7.28
2022-09-11T18:59:17.320Z,6.97
2022-09-11T19:01:44.970Z,7.13
2022-09-11T19:04:14.985Z,6.97
2022-09-11T19:06:42.606Z,6.38
2022-09-11T19:09:12.649Z,6.00
2022-09-11T19:11:41.004Z,6.47
2022-09-11T19:14:10.826Z,5.90
2022-09-11T19:16:39.501Z,5.78
2022-09-11T19:19:07.797Z,6.18
2022-09-11T19:21:36.612Z,6.35
2022-09-11T19:24:04.712Z,7.32
2022-09-11T19:26:36.000Z,6.75
2022-09-11T19:29:03.432Z,6.20
2022-09-11T19:31:30.822Z,6.35
2022-09-11T19:34:01.737Z,5.53
2022-09-11T19:36:32.254Z,5.20
2022-09-11T19:39:01.096Z,5.70
2022-09-11T19:41:31.276Z,5.55
2022-09-11T19:44:01.747Z,5.60
2022-09-11T19:46:30.761Z,6.05
2022-09-11T19:49:00.941Z,6.18
2022-09-11T19:51:31.243Z,6.40
2022-09-11T19:54:00.615Z,6.10
2022-09-11T19:56:29.601Z,5.97
2022-09-11T19:58:57.150Z,6.15
2022-09-11T20:01:25.922Z,5.20
2022-09-11T20:03:55.348Z,4.68
2022-09-11T20:06:25.685Z,4.30
2022-09-11T20:09:07.967Z,4.18
2022-09-11T20:11:41.976Z,3.53
2022-09-11T20:14:10.585Z,4.35
2022-09-11T20:16:38.154Z,3.80
2022-09-11T20:19:06.736Z,4.43
2022-09-11T20:21:36.325Z,3.90
2022-09-11T20:24:06.539Z,3.65
2022-09-11T20:26:34.538Z,3.67
2022-09-11T20:29:07.103Z,4.15
2022-09-11T20:31:48.019Z,3.30
2022-09-11T20:34:19.966Z,3.80
2022-09-11T20:36:48.485Z,4.53
2022-09-11T20:39:16.824Z,4.00
2022-09-11T20:41:44.550Z,4.20
2022-09-11T20:44:12.303Z,4.10
2022-09-11T20:46:40.053Z,4.50
2022-09-11T20:49:07.569Z,4.88
2022-09-11T20:51:35.117Z,5.78
2022-09-11T20:54:02.815Z,6.70
2022-09-11T20:56:30.343Z,4.90
2022-09-11T20:58:57.925Z,4.82
2022-09-11T21:01:27.123Z,5.38
2022-09-11T21:03:57.310Z,5.40
2022-09-11T21:06:27.417Z,5.47
2022-09-11T21:08:59.929Z,5.40
2022-09-11T21:11:41.563Z,4.55
2022-09-11T21:14:10.169Z,5.72
2022-09-11T21:16:38.159Z,4.43
2022-09-11T21:19:06.972Z,4.22
2022-09-11T21:21:38.012Z,5.25
2022-09-11T21:24:07.426Z,4.97
2022-09-11T21:26:35.670Z,5.03
2022-09-11T21:29:07.549Z,5.20
2022-09-11T21:31:35.524Z,5.10
2022-09-11T21:34:04.478Z,3.88
2022-09-11T21:36:33.682Z,4.75
2022-09-11T21:39:01.070Z,4.03
2022-09-11T21:41:28.471Z,4.38
2022-09-11T21:43:55.875Z,3.80
2022-09-11T21:46:23.343Z,4.43
2022-09-11T21:48:50.791Z,3.85
2022-09-11T21:51:20.537Z,3.60
2022-09-11T21:53:50.084Z,3.42
2022-09-11T21:56:20.125Z,3.97
2022-09-11T21:58:50.673Z,3.47
2022-09-11T22:01:18.836Z,4.05
2022-09-11T22:03:46.938Z,4.05
2022-09-11T22:06:14.803Z,3.60
2022-09-11T22:08:47.325Z,3.85
2022-09-11T22:11:15.562Z,3.75
2022-09-11T22:13:43.339Z,3.72
2022-09-11T22:16:13.944Z,3.63
2022-09-11T22:18:41.958Z,3.90
2022-09-11T22:21:10.544Z,3.38
2022-09-11T22:23:37.993Z,3.95
2022-09-11T22:26:09.269Z,3.45
2022-09-11T22:28:38.114Z,3.75
2022-09-11T22:31:10.558Z,3.80
2022-09-11T22:33:39.564Z,3.72
2022-09-11T22:36:12.134Z,3.55
2022-09-11T22:38:39.838Z,3.55
2022-09-11T22:41:07.817Z,3.70
2022-09-11T22:43:35.548Z,3.78
2022-09-11T22:46:03.410Z,3.67
2022-09-11T22:48:30.822Z,3.63
2022-09-11T22:50:58.394Z,3.28
2022-09-11T22:53:27.153Z,3.50
2022-09-11T22:55:55.334Z,3.33
2022-09-11T22:58:24.225Z,3.50
2022-09-11T23:00:55.047Z,4.20
2022-09-11T23:03:22.707Z,3.35
2022-09-11T23:06:14.528Z,3.58
2022-09-11T23:08:42.171Z,4.03
2022-09-11T23:11:11.407Z,3.50
2022-09-11T23:13:39.049Z,4.03
2022-09-11T23:16:15.617Z,3.80
2022-09-11T23:18:44.566Z,3.70
2022-09-11T23:21:12.943Z,3.50
2022-09-11T23:23:45.107Z,3.42
2022-09-11T23:26:13.986Z,3.22
2022-09-11T23:28:41.965Z,3.10
2022-09-11T23:31:18.821Z,3.15
2022-09-11T23:33:47.489Z,3.15
2022-09-11T23:36:16.811Z,3.33
2022-09-11T23:38:46.006Z,3.30
2022-09-11T23:41:15.801Z,3.22
2022-09-11T23:43:43.604Z,4.00
2022-09-11T23:46:23.464Z,3.55
2022-09-11T23:48:51.058Z,3.30
2022-09-11T23:51:18.574Z,3.47
2022-09-11T23:53:45.970Z,3.72
2022-09-11T23:56:14.668Z,3.13
2022-09-11T23:58:42.827Z,3.22
